Date,TemperatureHighF,TemperatureAvgF,TemperatureLowF,DewpointHighF,DewpointAvgF,DewpointLowF,HumidityHigh,HumidityAvg,HumidityLow,PressureMaxIn,PressureMinIn,WindSpeedMaxMPH,WindSpeedAvgMPH,GustSpeedMaxMPH,PrecipitationSumIn
2013-1-1,19.1,12.4,6.5,12.5,7.6,2.2,86,81,73,30.65,30.42,5,2,18,0.00
2013-1-2,18.0,8.5,4.0,8.7,2.9,-1.9,84,78,65,30.75,30.63,6,2,18,0.00
2013-1-3,27.6,12.7,4.8,12.6,6.2,0.6,84,75,52,30.69,30.44,4,1,18,0.00
2013-1-4,39.1,18.5,6.5,19.4,8.2,2.0,83,66,43,30.50,30.36,9,2,18,0.00
2013-1-5,34.5,24.3,18.4,19.9,15.4,12.4,78,69,54,30.26,30.18,3,1,18,0.00
2013-1-6,38.2,26.2,18.3,22.0,16.6,11.2,77,67,47,30.18,30.02,6,2,18,0.00
2013-1-7,39.4,32.0,23.0,25.6,19.7,14.2,71,60,48,30.08,29.77,13,5,22,0.00
2013-1-8,41.7,35.9,32.4,27.0,20.2,14.2,68,53,42,30.02,29.81,17,6,26,0.00
2013-1-9,45.1,41.0,35.3,25.8,23.4,21.0,61,50,40,29.97,29.50,16,10,27,0.00
2013-1-10,42.7,21.6,6.1,27.0,16.4,0.8,91,81,43,29.84,29.46,9,2,18,0.00
2013-1-11,6.4,3.5,-3.0,0.8,-1.9,-7.9,82,78,73,30.40,29.84,3,1,18,0.00
2013-1-12,7.9,0.0,-8.3,0.6,-5.3,-12.1,84,78,69,30.51,30.38,4,1,18,0.00
2013-1-13,10.4,0.1,-6.2,1.2,-5.2,-11.1,84,78,64,30.57,30.49,3,1,18,0.00
2013-1-14,16.7,6.6,-1.5,8.6,0.4,-7.7,86,75,61,30.59,30.41,10,2,18,0.00
2013-1-15,32.2,23.4,12.3,22.3,16.1,8.7,86,74,56,30.57,30.51,9,3,18,0.00
2013-1-16,42.8,33.9,20.1,20.9,15.5,12.3,75,48,33,30.51,30.39,13,5,21,0.08
2013-1-17,39.6,26.7,19.5,18.3,13.8,9.6,70,59,35,30.48,30.33,8,1,13,0.00
2013-1-18,48.5,37.5,27.0,14.8,11.4,7.0,52,35,20,30.34,30.05,17,7,29,0.00
2013-1-19,46.9,33.6,24.3,15.9,11.2,7.0,55,40,21,30.31,30.18,5,1,9,0.00
2013-1-20,45.9,31.1,18.9,19.4,14.1,9.4,71,50,30,30.37,30.30,10,2,16,0.00
2013-1-21,51.3,34.3,23.8,21.5,14.4,8.7,64,46,19,30.31,30.11,7,1,13,0.00
2013-1-22,41.9,27.0,18.1,14.1,9.3,5.0,61,48,31,30.24,30.13,3,1,6,0.00
2013-1-23,47.7,44.0,39.9,24.9,20.8,15.2,49,40,30,29.98,29.89,12,5,20,0.00
2013-1-24,46.0,35.6,24.1,27.3,21.3,17.5,76,58,38,30.10,29.89,13,5,20,0.00
2013-1-25,44.8,35.8,26.1,31.6,26.5,18.6,85,69,54,30.12,29.90,9,2,20,0.00
2013-1-26,46.5,33.4,27.1,32.2,27.4,24.0,93,80,47,29.90,29.65,11,3,20,0.00
2013-1-27,29.8,24.9,19.7,24.9,17.1,10.9,92,74,48,29.94,29.80,8,2,20,0.00
2013-1-28,29.3,22.1,17.7,17.0,12.1,8.4,81,66,44,29.95,29.81,8,2,20,0.00
2013-1-29,25.3,18.7,13.6,18.2,14.6,9.9,90,84,72,30.20,29.81,4,1,16,0.00
2013-1-30,36.7,30.6,19.8,26.5,23.5,15.1,87,75,59,30.14,30.04,16,7,21,0.03
2013-1-31,39.1,36.4,32.9,27.7,24.6,21.9,70,62,57,30.15,30.05,12,5,18,0.03
2013-2-1,39.1,34.9,30.7,26.9,21.5,17.9,85,58,44,30.33,30.02,17,7,23,0.00
2013-2-2,44.5,31.8,23.0,25.1,19.2,14.5,77,61,36,30.44,30.28,8,3,16,0.00
2013-2-3,43.0,31.2,22.6,23.9,16.6,11.4,66,55,35,30.28,30.04,9,2,14,0.00
2013-2-4,41.3,35.9,30.8,25.4,20.8,13.2,70,54,37,30.04,29.93,10,4,20,0.00
2013-2-5,46.8,35.8,26.3,28.1,23.1,20.0,88,61,36,29.95,29.73,9,2,12,0.00
2013-2-6,38.1,30.0,19.7,26.8,17.5,11.2,81,60,36,30.10,29.81,8,3,14,0.00
2013-2-7,38.0,27.5,18.1,19.5,13.6,10.2,72,57,36,30.10,29.92,11,3,14,0.00
2013-2-8,32.2,25.3,16.8,21.8,15.7,10.5,77,67,55,30.03,29.96,5,3,7,0.00
2013-2-9,30.8,24.8,17.0,20.1,15.0,10.8,88,67,47,30.09,29.88,9,3,13,0.00
2013-2-10,28.8,21.2,13.2,18.8,14.2,6.5,89,75,56,30.23,30.10,5,2,8,0.00
2013-2-11,27.5,19.5,12.2,17.9,12.0,6.3,80,72,62,30.26,30.18,5,2,7,0.00
2013-2-12,36.1,31.3,23.4,23.0,20.3,15.4,72,64,55,30.26,30.08,11,4,14,0.01
2013-2-13,39.7,35.5,30.5,26.5,20.4,14.3,85,54,45,30.16,29.96,20,10,31,0.01
2013-2-14,34.9,31.8,27.9,21.5,17.5,14.2,76,56,45,30.41,30.16,11,6,19,0.00
2013-2-15,43.5,32.8,25.6,25.8,21.4,18.7,81,63,46,30.46,30.29,10,4,15,0.00
2013-2-16,48.1,35.5,22.5,28.5,22.1,17.9,92,61,39,30.29,29.73,18,4,18,0.00
2013-2-17,32.3,27.9,22.6,24.3,17.2,12.6,88,64,53,30.08,29.75,12,6,19,0.00
2013-2-18,36.7,27.1,21.3,16.6,12.6,7.7,79,56,32,30.12,29.88,13,3,19,0.00
2013-2-19,41.7,28.6,21.6,20.6,14.6,10.2,76,57,32,29.88,29.65,12,3,19,0.00
2013-2-20,29.8,24.5,21.4,24.4,18.1,12.4,88,77,62,29.96,29.77,6,2,15,0.00
2013-2-21,29.8,22.0,11.6,16.2,9.0,3.2,73,58,38,30.08,29.96,10,3,15,0.00
2013-2-22,38.1,29.9,21.0,20.2,15.7,10.6,71,56,41,30.05,29.65,17,5,23,0.00
2013-2-23,33.8,26.4,21.5,24.0,13.9,8.2,88,60,44,30.15,29.58,17,8,21,0.00
2013-2-24,32.1,24.6,15.2,13.5,10.5,7.8,74,56,41,30.30,30.15,11,4,20,0.00
2013-2-25,34.9,25.2,16.7,21.0,13.5,9.6,76,62,44,30.19,29.91,12,3,17,0.00
2013-2-26,31.9,26.1,19.6,14.6,11.6,8.0,72,55,40,30.31,30.05,10,5,17,0.00
2013-2-27,39.4,29.0,14.4,15.5,10.0,6.8,72,47,27,30.33,30.25,12,4,20,0.00
2013-2-28,40.4,31.5,19.5,27.8,19.9,9.2,84,63,46,30.36,30.28,8,2,19,0.00
2013-3-1,49.1,41.4,36.2,31.1,28.7,26.6,70,61,45,30.36,30.26,11,4,19,0.00
2013-3-2,55.3,41.6,30.2,30.2,26.1,19.9,76,56,25,30.26,29.81,11,3,19,0.00
2013-3-3,39.6,30.7,24.0,30.8,18.2,2.4,92,62,29,30.00,29.64,19,8,36,0.01
2013-3-4,26.7,19.3,10.3,17.4,10.2,3.7,88,69,46,30.37,30.01,7,2,19,0.00
2013-3-5,40.7,24.9,8.2,18.5,9.5,2.2,77,55,31,30.32,30.01,10,3,19,0.01
2013-3-6,48.7,33.2,24.8,30.4,22.8,15.8,89,66,40,30.01,29.62,15,3,21,0.00
2013-3-7,39.2,32.0,24.1,25.4,17.2,13.0,79,56,35,30.03,29.77,10,3,19,0.00
2013-3-8,40.6,28.5,16.4,20.2,13.6,4.3,72,55,22,30.06,29.92,7,4,19,0.00
2013-3-9,42.8,31.4,20.9,19.8,15.6,11.0,75,53,32,30.34,30.06,11,5,19,0.00
2013-3-10,48.8,34.2,19.3,27.2,16.4,7.8,79,53,20,30.38,30.12,14,4,19,0.00
2013-3-12,51.7,41.5,27.1,29.0,24.7,12.6,61,51,38,30.16,30.05,10,5,17,0.00
2013-3-13,56.1,46.3,35.8,29.1,26.1,20.7,67,47,28,30.12,30.05,12,4,16,0.00
2013-3-14,59.3,49.1,35.7,27.6,24.8,21.8,68,41,27,30.08,29.89,11,4,21,0.00
2013-3-15,50.8,44.2,35.0,30.2,23.5,20.6,65,45,31,29.96,29.89,12,4,21,0.00
2013-3-16,47.4,38.9,31.0,25.4,22.2,15.0,74,53,29,29.95,29.56,8,2,21,0.00
2013-3-17,36.1,27.1,21.3,28.5,14.6,6.2,93,60,44,29.99,29.49,18,9,32,0.00
2013-3-18,33.3,25.4,16.8,20.3,10.5,3.6,89,55,30,30.10,29.95,14,5,21,0.00
2013-3-19,43.1,29.0,17.7,19.7,12.2,2.4,90,51,19,30.30,30.07,9,4,21,0.05
2013-3-20,52.2,38.4,26.0,31.2,22.8,5.7,94,56,29,30.06,29.47,18,8,24,0.00
2013-3-21,30.7,26.5,18.6,25.8,11.3,3.7,92,54,32,30.00,29.60,14,6,22,0.00
2013-3-22,27.4,20.3,14.9,18.3,11.7,6.6,87,69,53,30.26,29.98,7,2,20,0.00
2013-3-23,28.2,19.0,10.6,16.4,10.2,6.0,84,69,45,30.38,30.26,7,2,20,0.00
2013-3-24,33.8,20.4,6.9,11.0,6.3,-0.5,73,56,33,30.45,30.31,7,3,20,0.00
2013-3-25,44.9,27.7,11.5,17.0,7.9,2.0,67,46,21,30.33,30.07,15,5,20,0.01
2013-3-26,49.0,38.4,30.0,22.3,19.7,15.8,62,48,31,30.07,29.88,6,2,20,0.00
2013-3-27,53.2,39.5,26.6,30.4,22.6,17.5,73,53,31,29.99,29.89,9,4,14,0.00
2013-3-28,52.5,40.5,29.3,33.0,28.5,24.2,82,64,41,30.04,29.95,12,4,16,0.00
2013-3-29,48.2,40.1,32.5,36.5,31.4,28.2,87,72,51,30.15,30.03,10,3,14,0.00
2013-3-30,56.1,42.8,31.3,30.9,25.4,18.2,84,54,25,30.21,30.05,8,3,11,0.00
2013-3-31,59.0,43.3,29.1,28.3,24.0,20.0,72,49,26,30.07,29.92,6,2,10,0.00
2013-4-1,60.5,43.5,28.3,28.4,25.4,22.6,79,53,26,29.98,29.87,7,3,10,0.00
2013-4-2,63.3,47.8,34.0,30.7,27.0,23.9,67,47,27,29.98,29.83,10,4,14,0.00
2013-4-3,57.6,47.5,39.4,31.6,28.5,23.5,67,50,27,29.98,29.89,10,3,14,0.00
2013-4-4,61.4,47.4,32.9,37.7,31.7,27.1,79,57,31,29.94,29.67,14,5,29,0.00
2013-4-5,52.3,44.9,39.5,36.3,30.3,22.3,78,58,33,29.81,29.64,13,6,19,0.00
2013-4-6,48.3,40.3,33.8,35.2,30.8,26.9,85,69,56,29.81,29.72,14,4,14,0.05
2013-4-7,47.9,36.4,29.7,33.1,28.8,25.4,91,75,47,29.79,29.50,12,3,17,0.00
2013-4-8,29.7,23.1,15.1,25.2,13.7,7.1,83,67,52,30.33,29.71,7,4,17,0.00
2013-4-9,40.4,25.1,10.0,13.8,9.0,2.6,80,54,26,30.49,30.30,7,2,10,0.00
2013-4-10,56.0,42.5,24.2,37.5,28.2,13.5,80,58,43,30.30,29.75,13,5,16,0.06
2013-4-11,46.6,39.7,33.1,32.2,23.3,16.9,79,53,32,29.97,29.83,14,7,16,0.01
2013-4-12,53.9,40.1,28.3,23.3,16.0,6.7,65,41,15,30.02,29.54,11,3,22,0.00
2013-4-13,43.1,35.1,26.0,29.9,17.8,4.6,77,50,25,29.66,29.33,20,10,29,0.00
2013-4-14,36.9,27.3,19.0,26.1,18.7,10.8,89,71,40,29.96,29.66,10,4,17,0.01
2013-4-15,29.1,21.6,16.1,13.6,10.7,9.1,76,63,48,30.21,29.95,8,4,15,0.00
2013-4-16,29.9,22.0,17.0,11.5,9.0,5.7,73,58,36,30.39,30.19,9,4,18,0.00
2013-4-17,38.8,25.4,11.8,13.0,7.1,-0.7,85,50,19,30.43,30.32,7,2,13,0.00
2013-4-18,45.5,34.1,23.6,20.1,14.6,6.8,56,45,33,30.34,30.19,12,7,21,0.00
2013-4-19,49.8,40.8,33.2,34.4,28.0,19.8,78,61,45,30.19,29.79,13,4,19,0.01
2013-4-20,49.4,42.6,37.2,31.5,26.3,21.2,78,54,34,29.95,29.85,14,7,22,0.00
2013-4-21,42.1,33.1,17.9,29.7,22.7,12.3,87,66,48,30.20,29.89,10,4,15,0.00
2013-4-22,35.5,24.8,17.3,16.7,12.5,7.0,82,61,30,30.47,30.19,6,3,13,0.05
2013-4-23,41.5,31.4,19.2,19.3,13.3,8.9,66,49,29,30.45,30.20,10,5,13,0.00
2013-4-24,32.0,30.5,28.2,19.1,18.8,18.4,67,61,58,30.27,30.25,3,1,13,0.00
2013-4-25,58.0,49.1,34.0,23.5,19.8,14.2,51,32,23,29.98,29.78,15,6,20,0.00
2013-4-26,64.1,50.8,34.1,28.6,25.2,20.3,65,40,21,30.08,29.98,12,5,18,0.00
2013-4-27,66.0,54.0,39.2,29.6,24.5,17.6,63,35,16,30.04,29.77,15,6,29,0.00
2013-4-28,56.8,48.7,39.8,33.7,26.8,20.8,62,43,26,29.85,29.71,14,6,19,0.00
2013-4-29,47.0,40.1,29.1,34.9,24.9,17.5,86,56,39,29.77,29.46,21,8,35,0.02
2013-4-30,39.3,29.1,24.2,23.9,15.3,2.7,90,59,25,30.30,29.77,12,4,16,0.00
2013-5-1,44.7,31.7,18.6,22.8,15.9,7.9,87,57,23,30.65,30.30,9,2,13,0.06
2013-5-2,61.6,44.6,24.3,17.4,12.6,2.1,66,34,10,30.67,30.23,12,5,19,0.00
2013-5-3,49.3,44.4,38.9,38.0,28.6,14.3,88,58,26,30.22,30.06,11,3,16,0.08
2013-5-4,51.6,43.8,37.9,35.7,33.9,31.7,89,69,50,30.21,30.10,10,4,17,0.03
2013-5-5,64.7,49.0,32.4,35.2,32.5,30.1,92,57,30,30.11,29.85,6,2,8,0.00
2013-5-6,71.5,54.2,36.4,34.0,28.0,20.8,72,42,16,29.92,29.67,7,4,12,0.00
2013-5-7,67.8,55.9,42.2,35.2,31.7,28.4,59,41,27,29.87,29.71,11,5,21,0.00
2013-5-8,72.3,56.3,38.5,37.3,33.0,29.0,74,45,21,29.94,29.85,9,4,18,0.00
2013-5-9,71.0,56.2,43.8,41.0,35.1,31.1,66,47,24,30.01,29.89,9,5,14,0.02
2013-5-10,68.7,56.8,44.9,38.6,35.4,32.7,70,47,28,30.16,29.98,9,5,18,0.00
2013-5-11,73.6,59.3,41.9,38.1,33.9,29.4,69,42,20,30.16,29.93,14,5,15,0.00
2013-5-12,81.2,65.7,47.3,41.3,36.8,30.2,64,38,18,29.98,29.72,12,5,19,0.00
2013-5-13,81.1,65.6,49.7,44.2,37.9,21.7,68,42,12,29.79,29.45,19,7,25,0.00
2013-5-14,68.4,55.1,42.3,37.8,27.6,18.8,61,38,16,29.85,29.66,11,4,20,0.00
2013-5-15,64.8,51.6,38.1,40.5,30.6,25.3,79,47,29,29.90,29.71,9,3,13,0.03
2013-5-16,54.7,49.4,43.0,46.1,40.4,36.9,84,71,55,29.78,29.70,7,2,9,0.11
2013-5-17,48.7,44.8,40.0,43.1,39.6,34.9,92,82,71,29.84,29.75,5,2,8,0.23
2013-5-18,53.5,46.7,42.6,45.4,40.8,36.6,94,81,62,29.94,29.83,10,4,15,0.13
2013-5-19,51.9,47.4,43.5,39.0,36.2,34.5,73,65,56,30.08,29.93,13,8,17,0.00
2013-5-20,62.2,51.7,44.9,42.8,38.8,35.4,83,62,40,30.13,29.96,8,3,14,0.00
2013-5-21,68.3,52.2,36.4,42.3,37.6,32.9,87,62,29,29.97,29.55,14,6,21,0.02
2013-5-22,60.9,49.5,32.1,45.5,38.9,30.3,93,69,43,29.78,29.46,15,4,19,0.73
2013-5-23,44.6,34.1,29.9,32.4,30.2,27.9,94,86,62,30.00,29.77,4,1,8,0.56
2013-5-24,56.3,43.8,33.1,35.9,31.5,25.7,93,65,32,29.99,29.85,12,4,19,0.32
2013-5-25,58.3,45.2,32.2,41.5,35.3,29.4,90,70,43,29.95,29.82,7,2,12,0.01
2013-5-26,62.2,45.9,34.6,41.8,36.1,30.7,91,71,32,29.92,29.71,18,4,24,0.38
2013-5-27,61.5,48.4,39.1,43.6,39.2,36.1,93,72,41,29.84,29.67,8,2,13,0.11
2013-5-28,52.9,46.2,39.1,46.3,40.3,36.1,90,80,63,29.70,29.62,9,3,15,0.76
2013-5-29,64.1,49.1,39.5,41.8,38.9,35.7,91,70,40,29.71,29.52,11,3,18,0.10
2013-5-30,53.2,47.2,42.5,37.6,31.8,27.3,78,56,38,29.93,29.67,12,6,18,0.00
2013-5-31,54.7,46.8,39.5,34.4,29.9,27.8,73,53,38,30.19,29.93,13,6,18,0.00
2013-6-1,66.6,50.5,33.7,35.5,30.5,26.2,76,50,22,30.22,29.92,7,4,15,0.00
2013-6-2,59.7,47.6,41.2,44.2,38.1,35.0,86,71,46,29.83,29.67,11,4,18,0.18
2013-6-3,56.9,46.9,39.3,42.0,37.5,34.3,88,71,50,30.03,29.78,13,5,22,0.06
2013-6-4,58.5,47.2,39.2,38.8,35.0,30.2,90,64,43,30.13,30.02,6,2,11,0.01
2013-6-5,71.4,55.8,37.3,44.8,37.9,31.7,80,54,33,30.10,29.85,8,4,12,0.00
2013-6-6,78.5,63.2,49.7,46.6,39.2,31.7,62,42,25,29.91,29.74,7,3,11,0.00
2013-6-7,75.2,63.3,51.1,46.8,41.4,39.1,65,47,28,29.77,29.54,17,7,27,0.00
2013-6-8,75.0,62.8,53.3,40.5,33.7,28.2,52,36,19,29.76,29.65,12,4,17,0.00
2013-6-9,79.4,64.4,46.5,41.3,31.7,20.8,66,34,12,29.76,29.52,12,5,20,0.00
2013-6-10,75.9,61.0,43.5,41.3,33.5,28.4,64,38,23,29.66,29.49,8,3,12,0.00
2013-6-11,70.2,58.7,49.8,52.5,45.8,34.6,87,64,34,29.79,29.53,10,2,16,0.27
2013-6-12,72.6,58.1,43.1,55.4,47.6,40.5,91,70,47,29.82,29.66,8,4,14,0.19
2013-6-13,52.8,46.6,39.4,49.0,40.6,35.9,88,80,64,29.96,29.72,12,4,19,0.17
2013-6-14,57.8,47.8,38.6,36.4,32.3,25.5,88,58,30,30.05,29.92,10,5,15,0.00
2013-6-15,73.0,55.1,36.2,37.0,30.8,21.4,78,45,15,30.05,29.83,7,3,12,0.00
2013-6-16,75.1,60.7,42.7,44.3,34.8,29.9,64,41,21,29.93,29.83,10,5,15,0.00
2013-6-17,82.7,64.4,45.3,45.3,40.5,25.0,78,47,13,29.90,29.66,9,3,14,0.00
2013-6-18,81.8,65.5,47.8,48.5,41.4,33.2,73,46,18,29.71,29.38,10,4,21,0.00
2013-6-19,65.7,52.6,44.5,49.9,42.6,35.5,83,69,54,29.64,29.35,14,5,21,0.13
2013-6-20,57.2,48.8,42.9,38.1,35.0,31.3,77,60,38,29.97,29.63,13,6,19,0.00
2013-6-21,60.7,48.3,35.6,40.3,36.8,31.5,85,66,38,29.98,29.90,10,3,11,0.00
2013-6-22,61.1,50.7,43.6,42.1,38.4,34.3,89,65,39,29.95,29.86,10,3,13,0.06
2013-6-23,72.6,56.6,38.2,45.2,37.6,28.7,79,52,21,29.89,29.57,7,3,10,0.00
2013-6-24,76.3,58.6,48.6,50.2,44.3,37.0,92,62,26,29.58,29.34,16,4,21,0.18
2013-6-25,72.0,58.4,46.6,49.2,43.8,37.9,94,62,32,29.73,29.53,10,3,15,0.01
2013-6-26,66.6,58.5,51.4,53.3,47.2,40.7,82,67,43,29.97,29.71,11,3,16,0.08
2013-6-27,83.6,65.3,47.3,54.7,46.9,39.2,90,57,23,30.04,29.96,8,3,13,0.00
2013-6-28,85.0,69.9,53.1,53.2,48.7,44.7,73,50,30,30.05,29.89,9,4,13,0.00
2013-6-29,85.0,70.3,56.5,56.3,51.0,46.8,76,53,29,29.93,29.75,13,5,17,0.01
2013-6-30,85.5,71.1,55.5,59.0,53.0,49.4,83,56,31,29.87,29.80,7,4,12,0.00
2013-7-1,91.5,74.9,56.6,56.7,51.3,45.0,79,48,23,29.92,29.78,7,4,13,0.00
2013-7-2,92.5,77.0,60.5,59.1,52.3,45.1,71,46,20,29.84,29.67,11,4,13,0.00
2013-7-3,87.3,77.8,67.0,54.4,50.4,44.7,59,40,24,29.71,29.57,9,5,14,0.00
2013-7-4,84.0,71.1,56.0,52.4,44.6,35.4,62,41,20,29.66,29.50,10,5,16,0.00
2013-7-5,78.5,66.1,53.1,52.7,43.8,37.8,66,46,30,29.61,29.47,14,3,14,0.01
2013-7-6,80.1,63.8,49.3,46.4,40.9,38.1,67,45,24,29.74,29.57,6,3,9,0.00
2013-7-7,83.1,68.5,52.0,49.8,41.9,34.1,67,41,19,29.69,29.54,9,3,14,0.01
2013-7-8,78.9,64.3,51.8,55.5,45.7,39.5,73,53,28,29.87,29.65,9,4,13,0.28
2013-7-9,82.3,66.7,47.8,44.8,41.0,34.8,74,43,21,29.98,29.83,6,2,10,0.00
2013-7-10,90.9,72.5,52.4,43.6,35.5,27.3,47,29,11,29.89,29.55,11,5,26,0.00
2013-7-11,77.9,66.5,54.5,49.9,43.2,37.3,79,45,24,29.66,29.50,16,5,20,0.03
2013-7-12,78.1,63.1,46.5,47.6,43.0,36.4,82,52,25,29.71,29.60,14,5,18,0.00
2013-7-13,75.1,62.3,48.9,43.8,38.6,29.1,75,45,23,29.93,29.70,8,4,16,0.00
2013-7-14,83.2,64.6,44.6,45.4,36.1,29.3,69,39,18,29.97,29.77,8,4,12,0.00
2013-7-15,87.9,70.2,50.8,44.5,36.1,30.8,53,32,14,29.82,29.61,10,5,18,0.00
2013-7-16,83.2,65.4,50.1,58.4,48.2,42.8,87,57,28,29.93,29.73,9,4,16,0.30
2013-7-17,86.3,67.4,55.9,60.3,56.2,51.4,91,70,38,29.89,29.70,14,2,15,0.47
2013-7-18,84.0,70.2,55.8,56.7,43.5,27.4,85,44,13,29.94,29.82,8,3,12,0.00
2013-7-19,85.3,70.0,52.4,44.2,37.0,29.7,50,32,14,29.89,29.72,8,5,12,0.00
2013-7-20,86.3,69.8,53.4,43.0,34.6,20.0,46,30,9,29.79,29.60,10,4,14,0.00
2013-7-21,87.5,71.7,52.8,36.6,31.4,21.0,44,25,9,29.68,29.54,8,4,12,0.00
2013-7-22,84.6,70.4,52.3,40.5,27.1,11.7,42,23,7,29.75,29.63,10,6,18,0.00
2013-7-23,85.7,69.9,53.4,39.7,34.2,29.9,45,29,14,29.85,29.75,8,4,13,0.00
2013-7-24,88.6,71.5,53.5,45.0,34.5,27.4,44,28,12,29.82,29.68,9,5,13,0.00
2013-7-25,86.5,71.5,52.2,50.9,43.6,35.9,67,40,17,29.87,29.74,7,3,14,0.00
2013-7-26,88.8,72.9,55.4,43.7,35.8,25.0,43,28,10,29.90,29.73,11,5,17,0.00
2013-7-27,82.3,70.4,56.6,44.4,34.1,17.7,48,29,10,29.77,29.58,9,5,20,0.00
2013-7-28,77.0,66.7,52.1,46.0,37.1,31.7,50,35,21,29.65,29.53,7,3,12,0.00
2013-7-29,74.8,63.1,51.3,48.8,43.8,34.3,74,51,28,29.78,29.62,6,2,10,0.00
2013-7-30,76.3,60.3,48.2,50.6,39.8,28.7,65,47,25,30.01,29.79,8,3,9,0.09
2013-7-31,86.2,66.6,48.0,43.7,37.0,25.5,63,38,11,30.04,29.80,9,4,15,0.00
2013-8-1,69.9,57.5,50.2,53.9,46.3,38.9,90,68,43,29.82,29.66,13,3,17,0.48
2013-8-2,65.4,56.0,44.2,52.8,45.4,40.3,87,69,46,29.95,29.74,13,3,16,0.11
2013-8-3,72.0,58.9,45.6,50.5,44.0,40.5,84,61,35,29.98,29.86,6,3,11,0.00
2013-8-4,77.8,63.3,46.7,46.7,41.5,34.7,78,49,24,29.94,29.79,7,4,10,0.00
2013-8-5,79.8,66.0,48.7,46.1,38.7,35.2,60,39,22,29.87,29.67,10,5,15,0.00
2013-8-6,78.6,65.4,50.4,47.0,41.5,38.5,65,43,28,29.82,29.75,8,4,11,0.00
2013-8-7,81.5,66.9,51.1,44.3,39.0,33.8,62,39,21,29.82,29.69,8,5,11,0.00
2013-8-8,80.6,66.3,50.4,48.0,42.3,37.3,61,43,23,29.83,29.70,8,4,10,0.00
2013-8-9,76.4,64.0,52.9,53.3,47.9,39.8,78,58,31,29.87,29.73,10,2,17,0.00
2013-8-10,79.8,62.0,48.2,53.3,45.2,39.6,79,57,31,29.89,29.77,9,3,13,0.00
2013-8-11,79.7,62.7,50.4,49.6,43.6,34.8,77,53,21,29.89,29.78,13,4,17,0.00
2013-8-12,79.2,61.6,48.8,49.2,44.1,38.1,79,56,26,29.99,29.83,13,4,18,0.02
2013-8-13,82.3,63.0,48.9,49.5,43.4,35.3,74,53,20,29.98,29.82,13,4,18,0.19
2013-8-14,83.4,65.1,49.3,50.1,41.5,37.1,69,46,22,29.93,29.79,7,4,13,0.00
2013-8-15,90.6,70.1,50.3,43.0,35.1,27.0,56,32,11,29.83,29.68,8,4,14,0.00
2013-8-16,90.5,71.7,53.7,45.0,33.8,23.6,45,28,9,29.75,29.65,13,6,22,0.00
2013-8-17,84.1,69.7,54.8,47.9,41.6,33.6,58,38,17,29.83,29.66,8,3,10,0.00
2013-8-18,84.7,71.1,56.6,50.3,42.5,35.8,59,38,18,29.83,29.69,11,4,18,0.00
2013-8-19,86.3,71.3,52.7,44.7,35.4,23.0,61,32,10,29.81,29.65,13,4,18,0.00
2013-8-20,84.9,69.3,52.5,46.5,36.2,31.7,52,32,16,29.78,29.65,10,4,19,0.00
2013-8-21,83.5,66.2,47.6,40.5,36.5,33.6,60,36,18,29.88,29.74,8,3,11,0.00
2013-8-22,84.5,67.1,52.8,52.1,41.4,32.7,72,41,22,29.86,29.66,10,4,13,0.00
2013-8-23,80.7,66.4,52.7,50.1,45.2,41.2,73,49,26,29.73,29.54,12,4,15,0.00
2013-8-24,80.2,65.7,51.3,48.4,43.7,34.6,73,48,20,29.72,29.58,15,4,15,0.00
2013-8-25,83.2,62.8,49.7,54.9,45.9,40.1,74,57,22,29.79,29.65,12,3,13,0.48
2013-8-26,84.3,67.2,51.2,50.1,44.5,36.6,82,49,19,29.85,29.68,9,3,14,0.00
2013-8-27,85.3,67.6,52.0,48.2,42.1,35.0,68,44,17,29.81,29.65,13,5,18,0.07
2013-8-28,78.0,63.9,52.0,54.9,47.7,42.5,73,57,37,29.84,29.70,12,4,17,0.03
2013-8-29,86.6,68.3,52.6,54.5,44.8,32.8,75,48,16,29.89,29.72,12,4,24,0.00
2013-8-30,81.7,65.7,50.2,51.8,44.0,36.3,75,49,21,29.87,29.75,8,4,13,0.00
2013-8-31,80.2,64.6,47.9,46.8,41.6,36.3,74,47,24,29.93,29.79,8,4,13,0.00
2013-9-1,88.5,67.6,49.2,43.2,37.6,29.6,61,37,13,29.86,29.66,8,4,10,0.00
2013-9-2,83.6,68.5,55.9,46.2,39.7,34.3,46,36,19,29.76,29.64,9,4,12,0.00
2013-9-3,82.6,65.3,57.7,57.5,48.7,42.9,90,58,30,29.91,29.75,14,3,18,0.13
2013-9-4,82.8,66.3,53.7,56.6,51.6,44.4,92,64,29,29.94,29.83,10,3,12,0.01
2013-9-5,80.1,62.9,55.4,58.4,52.3,47.5,91,70,38,29.87,29.72,18,4,27,0.29
2013-9-6,74.6,62.6,50.4,63.0,55.0,47.9,92,78,54,29.87,29.72,7,2,8,0.08
2013-9-7,82.1,65.6,54.4,57.2,52.4,32.9,88,66,17,29.87,29.67,8,2,12,0.01
2013-9-8,69.2,57.7,48.2,53.7,45.6,40.0,84,66,40,29.82,29.72,8,4,14,0.04
2013-9-9,68.4,57.8,47.5,45.7,42.7,39.3,74,58,40,29.92,29.82,10,3,12,0.00
2013-9-10,77.4,60.3,45.7,45.5,40.4,31.7,78,52,20,29.98,29.87,8,4,11,0.00
2013-9-11,80.1,63.0,45.2,47.5,41.9,33.8,76,50,19,30.06,29.95,8,4,11,0.00
2013-9-12,78.2,64.3,49.4,47.4,44.6,42.6,78,52,31,30.03,29.79,8,3,12,0.00
2013-9-13,78.3,64.6,54.4,54.7,48.5,44.4,72,57,35,29.79,29.57,13,4,17,0.02
2013-9-14,71.8,62.7,53.5,50.9,47.2,41.9,79,59,35,29.87,29.67,8,2,12,0.00
2013-9-15,76.4,63.1,48.8,50.7,47.4,44.0,84,59,36,29.87,29.67,12,4,16,0.00
2013-9-16,79.3,65.1,52.7,51.7,45.5,37.3,80,53,25,29.72,29.50,13,3,17,0.00
2013-9-17,56.9,50.1,42.7,49.9,43.2,36.7,89,77,54,29.63,29.49,8,3,10,0.11
2013-9-18,54.6,48.8,43.0,42.2,36.4,30.5,87,64,44,29.98,29.56,13,6,19,0.04
2013-9-19,64.1,50.0,38.4,35.0,32.8,29.0,77,54,29,30.09,29.94,6,2,10,0.00
2013-9-20,75.1,54.1,36.0,34.3,28.6,22.2,68,43,14,29.97,29.63,11,5,19,0.00
2013-9-21,74.7,57.2,40.9,35.4,29.6,25.6,58,38,17,29.64,29.40,9,4,21,0.00
2013-9-22,57.7,49.2,41.9,44.9,40.4,35.1,90,73,48,29.63,29.43,9,2,13,0.16
2013-9-23,57.2,46.6,38.5,39.4,34.9,29.3,92,67,35,29.90,29.62,13,3,16,0.02
2013-9-24,49.9,41.6,37.0,42.1,36.4,31.1,94,82,69,29.89,29.67,8,1,10,0.41
2013-9-25,44.0,38.7,35.8,40.4,36.0,33.1,95,90,85,29.73,29.58,5,2,12,0.60
2013-9-26,40.4,36.2,30.3,33.1,30.9,26.6,91,81,68,30.02,29.74,6,2,12,0.08
2013-9-27,45.9,37.9,28.0,32.0,27.2,23.8,86,67,44,30.05,29.93,9,3,10,0.00
2013-9-28,56.4,48.2,41.2,39.5,35.0,30.6,69,61,48,29.94,29.67,16,8,28,0.00
2013-9-29,51.7,44.7,38.4,40.5,36.1,32.4,87,72,57,29.67,29.44,16,5,27,0.20
2013-9-30,49.7,43.7,33.5,40.5,30.8,22.3,85,62,34,29.86,29.43,15,6,23,0.23
2013-10-1,48.1,39.2,29.2,34.0,28.9,23.0,82,68,41,30.02,29.86,7,2,10,0.00
2013-10-2,47.5,38.9,29.3,32.0,27.3,23.0,89,65,40,30.11,29.88,6,1,11,0.02
2013-10-3,40.5,32.6,30.9,30.8,27.9,24.5,91,83,56,30.38,29.87,7,3,11,0.00
2013-10-4,45.7,35.1,29.6,28.8,25.7,18.5,91,70,34,30.53,30.38,7,2,8,0.01
2013-10-5,56.5,40.6,26.7,29.3,24.4,7.5,84,56,15,30.44,30.30,8,2,15,0.00
2013-10-6,70.6,49.8,35.1,32.3,27.1,17.0,74,46,13,30.31,29.93,12,3,15,0.00
2013-10-7,67.2,50.9,37.7,31.0,25.6,21.0,58,40,19,29.93,29.60,16,5,21,0.00
2013-10-8,46.9,40.3,30.0,30.3,25.1,18.8,77,56,36,29.91,29.69,9,4,16,0.00
2013-10-9,55.6,40.0,29.4,28.9,26.8,23.4,84,62,33,30.02,29.83,7,2,8,0.00
2013-10-10,48.6,38.7,29.2,33.6,28.0,24.4,82,66,41,29.88,29.72,7,3,11,0.00
2013-10-11,48.8,39.9,29.6,30.6,22.9,17.9,72,52,30,30.01,29.88,8,4,14,0.00
2013-10-12,46.9,35.7,26.1,27.5,23.7,19.9,78,63,45,30.11,29.99,6,2,7,0.00
2013-10-13,45.5,36.3,28.1,32.3,27.5,22.9,82,71,57,30.21,30.08,5,2,8,0.00
2013-10-14,43.1,36.3,29.3,32.1,28.7,24.3,91,75,54,30.40,30.21,5,1,12,0.01
2013-10-15,50.1,34.8,24.3,25.5,22.2,18.0,83,62,36,30.42,30.19,6,3,12,0.00
2013-10-16,48.3,34.9,24.3,31.1,23.3,15.2,81,63,37,30.19,30.08,8,2,11,0.00
2013-10-17,42.9,36.5,29.8,31.3,28.8,24.7,88,74,52,30.26,30.14,9,2,15,0.00
2013-10-18,55.2,38.6,27.4,26.7,23.1,19.2,84,57,25,30.28,30.11,8,2,11,0.00
2013-10-19,59.8,45.2,30.8,27.3,23.6,19.0,74,46,26,30.12,29.92,10,3,13,0.00
2013-10-20,54.7,45.3,34.9,31.2,27.0,18.0,72,50,31,30.07,29.93,7,2,11,0.00
2013-10-21,55.8,43.3,32.4,34.2,31.1,27.2,81,63,43,30.18,30.07,7,2,11,0.00
2013-10-22,60.5,44.1,31.6,35.2,29.6,23.7,78,58,35,30.18,30.06,6,3,9,0.00
2013-10-23,60.9,43.6,31.6,30.5,24.5,21.2,65,48,27,30.15,30.07,8,4,10,0.00
2013-10-24,63.4,44.6,32.1,31.1,25.8,22.3,67,50,26,30.17,30.03,7,4,10,0.00
2013-10-25,59.9,44.6,33.3,29.5,24.9,22.6,67,47,26,30.24,30.09,7,3,13,0.00
2013-10-26,57.5,42.9,31.7,29.7,23.7,18.0,64,48,29,30.25,30.05,6,3,10,0.00
2013-10-27,59.3,39.8,26.9,26.6,21.8,18.1,69,51,23,30.04,29.65,11,4,21,0.00
2013-10-28,26.8,19.3,16.3,18.2,12.6,9.9,82,75,68,30.23,30.03,7,4,16,0.00
2013-10-29,36.7,22.9,11.7,23.5,15.6,7.3,86,74,56,30.21,30.04,4,1,5,0.00
2013-10-30,43.5,31.8,20.2,26.2,21.2,17.0,88,67,45,30.06,29.96,11,3,14,0.01
2013-10-31,44.9,38.6,33.1,34.2,27.1,22.0,86,63,53,30.04,29.87,12,4,17,0.01
2013-11-1,46.0,38.9,29.7,29.8,26.7,24.0,82,62,45,30.18,30.04,11,4,15,0.00
2013-11-2,55.1,37.3,29.5,35.4,26.3,19.7,90,67,28,30.08,29.56,15,5,28,0.08
2013-11-3,34.4,29.9,24.6,21.8,16.5,11.2,81,58,45,29.95,29.66,10,4,14,0.00
2013-11-4,32.1,24.4,17.7,19.9,13.9,9.5,89,66,40,30.18,29.95,8,2,11,0.00
2013-11-5,34.3,26.3,15.4,25.1,15.0,7.0,79,63,42,30.24,30.15,13,4,19,0.00
2013-11-6,41.6,35.3,30.6,25.2,20.9,15.4,76,57,35,30.32,30.15,13,4,18,0.00
2013-11-7,47.0,36.8,28.7,37.1,30.0,21.8,90,77,56,30.31,29.66,22,7,25,0.23
2013-11-8,39.5,35.6,30.5,28.1,22.9,17.4,69,60,49,30.11,29.79,11,4,17,0.00
2013-11-9,43.8,32.0,23.5,26.6,21.1,15.8,80,65,44,30.24,30.11,6,1,10,0.00
2013-11-10,58.4,40.8,28.5,35.5,29.8,23.7,83,67,36,30.18,30.05,10,2,18,0.00
2013-11-11,53.2,39.8,33.5,36.1,31.4,26.4,86,73,44,30.37,30.13,6,2,9,0.00
2013-11-12,63.5,42.7,30.3,31.4,25.4,20.8,74,53,23,30.37,30.20,12,3,13,0.00
2013-11-13,48.8,43.4,37.9,34.6,26.7,20.5,71,52,38,30.23,30.05,11,5,17,0.00
2013-11-14,43.1,33.7,26.0,24.8,21.0,17.4,76,60,36,30.14,29.78,8,2,12,0.00
2013-11-15,37.1,34.2,31.5,22.1,17.1,14.5,64,50,41,29.78,29.33,12,5,21,0.00
2013-11-16,36.8,31.0,26.3,23.6,17.8,10.4,74,58,42,29.59,29.20,13,7,21,0.00
2013-11-17,35.4,29.9,25.1,21.5,15.2,9.0,77,54,45,29.98,29.59,10,4,17,0.00
2013-11-18,48.6,38.6,28.3,23.4,15.1,8.5,59,39,26,30.00,29.71,11,4,18,0.00
2013-11-19,47.1,42.7,37.8,33.1,28.0,19.7,83,56,40,29.72,29.54,16,8,23,0.00
2013-11-20,39.2,28.7,10.1,33.0,17.6,4.0,86,64,37,30.29,29.56,10,4,15,0.00
2013-11-21,25.9,13.9,5.9,8.2,4.1,0.5,82,66,40,30.77,30.29,5,2,6,0.00
2013-11-22,28.9,16.7,6.9,9.8,5.3,0.8,78,61,39,30.86,30.75,5,2,8,0.00
2013-11-23,34.5,21.0,12.4,16.0,10.5,5.9,76,65,46,30.80,30.42,6,2,8,0.00
2013-11-24,38.0,25.3,13.6,17.3,13.1,7.5,79,61,40,30.42,30.29,5,1,6,0.00
2013-11-25,40.9,31.7,22.1,21.2,18.2,14.7,73,58,42,30.43,30.34,5,1,6,0.00
2013-11-26,54.1,36.2,26.5,25.2,21.0,18.7,73,56,27,30.43,30.13,5,2,7,0.00
2013-11-27,47.1,33.0,24.2,24.1,19.9,16.5,74,59,38,30.15,30.06,6,2,7,0.00
2013-11-28,42.3,30.2,23.2,23.6,18.8,15.2,71,63,47,30.19,30.09,7,2,8,0.00
2013-11-29,50.2,35.0,23.2,24.4,19.4,15.3,77,55,31,30.22,30.10,8,1,8,0.00
2013-11-30,44.1,38.1,33.5,32.1,27.8,23.2,79,67,53,30.18,30.09,6,2,9,0.00
2013-12-1,47.0,40.1,36.5,32.9,29.2,26.1,85,65,49,30.11,29.58,15,7,28,0.01
2013-12-2,44.1,31.5,8.4,33.2,22.4,-0.6,90,69,49,29.83,29.40,14,4,20,0.01
2013-12-3,8.5,1.8,-4.5,-0.5,-6.8,-10.7,77,67,55,30.46,29.83,6,2,13,0.00
2013-12-4,2.9,-3.3,-11.3,-6.9,-11.6,-18.6,75,67,56,30.56,30.46,7,2,9,0.00
2013-12-5,3.9,-6.0,-13.0,-6.9,-13.6,-19.5,80,69,56,30.61,30.50,7,2,7,0.00
2013-12-6,-6.0,-9.2,-13.6,-10.6,-14.2,-18.9,81,78,62,30.62,30.59,2,0,2,0.00
2013-12-7,-3.8,-11.4,-16.6,-13.6,-18.4,-22.2,79,70,57,30.61,30.44,4,1,5,0.00
2013-12-8,-1.6,-9.3,-17.3,-8.3,-14.8,-22.6,81,76,71,30.71,30.54,4,1,6,0.00
2013-12-9,22.1,3.8,-11.6,11.2,-2.0,-15.8,83,77,62,30.72,30.44,7,2,10,0.00
2013-12-10,24.7,20.7,15.5,14.9,12.0,10.0,87,70,54,30.44,30.31,8,3,12,0.00
2013-12-11,24.0,19.0,14.4,15.1,12.0,9.6,86,74,60,30.48,30.39,9,2,12,0.00
2013-12-12,42.2,26.3,16.3,20.5,16.1,11.3,81,66,41,30.44,30.09,10,1,14,0.01
2013-12-13,35.9,31.5,26.1,26.4,22.3,16.8,81,69,58,30.32,30.07,10,4,16,0.00
2013-12-14,42.5,36.2,30.9,26.6,22.8,16.9,66,58,38,30.34,30.13,13,5,22,0.00
2013-12-15,48.9,42.5,36.4,26.7,21.3,12.4,55,43,28,30.16,30.03,17,9,24,0.00
2013-12-16,47.1,39.6,28.0,22.3,17.0,14.4,65,41,28,30.28,30.05,16,8,25,0.00
2013-12-17,56.5,43.7,27.2,19.9,17.4,13.6,64,37,22,30.28,29.80,12,4,18,0.00
2013-12-18,46.0,38.6,27.6,27.2,17.8,12.3,88,46,26,29.80,29.58,9,3,15,0.00
2013-12-19,27.7,11.2,5.1,24.9,6.2,0.0,90,80,67,30.18,29.66,5,2,8,0.00
2013-12-20,28.0,18.1,7.0,21.1,10.9,3.3,89,75,50,30.18,29.66,8,2,13,0.00
2013-12-21,30.7,25.3,18.8,21.7,18.3,15.4,90,75,54,30.03,29.66,10,3,14,0.00
2013-12-22,33.5,29.4,25.4,24.6,22.5,19.9,86,76,65,30.24,30.00,7,2,13,0.00
2013-12-23,43.9,37.0,25.5,32.7,28.2,20.5,91,71,51,30.23,29.84,19,6,36,0.03
2013-12-24,32.8,28.6,21.8,19.8,14.8,12.5,70,56,44,30.47,29.98,18,8,28,0.00
2013-12-25,36.3,24.0,12.2,17.9,12.7,7.7,84,63,38,30.54,30.37,12,1,13,0.00
2013-12-26,49.3,38.9,27.3,26.6,22.5,12.5,70,52,38,30.44,30.22,7,2,10,0.00
2013-12-27,53.2,39.4,27.9,24.6,18.9,12.5,74,47,22,30.23,29.90,10,2,14,0.00
2013-12-28,43.1,32.2,26.2,23.1,18.6,13.7,70,58,36,30.30,29.89,12,4,18,0.00
2013-12-29,34.0,28.2,19.9,22.4,15.1,7.0,70,58,32,30.34,30.12,11,3,18,0.00
2013-12-30,42.4,36.2,29.7,28.9,24.1,21.0,72,62,43,30.24,29.95,14,3,20,0.00
2013-12-31,42.6,37.5,32.6,30.7,26.3,19.7,83,64,54,30.10,29.88,13,6,23,0.00
2014-1-1,36.3,30.6,22.1,20.5,17.7,14.1,74,59,45,30.34,30.09,8,3,11,0.00
2014-1-2,46.0,35.6,22.1,27.2,20.2,14.2,72,54,37,30.32,29.77,14,3,19,0.00